Time;durP1;ratioP1;P1;durP2;ratioP2;P2;SDS_P1;SDS_P2;PMS_P1;PMS_P2;Temp;Humidity;BMP_temperature;BMP_pressure;BME280_temperature;BME280_humidity;BME280_pressure;Samples;Min_cycle;Max_cycle;Signal;HPM_P1;HPM_P2
2023/04/15 00:01:59;;;;;;;11.10;9.80;;;;;;;9.18;100.00;97591.02;109653;1250;59772;-73
2023/04/15 00:04:27;;;;;;;10.30;9.30;;;;;;;9.12;100.00;97589.92;109351;1250;63831;-72
2023/04/15 00:06:53;;;;;;;11.20;10.10;;;;;;;9.05;100.00;97588.05;109554;1250;58951;-72
2023/04/15 00:09:20;;;;;;;11.80;10.60;;;;;;;8.99;100.00;97595.11;109661;1250;59007;-72
2023/04/15 00:11:47;;;;;;;12.20;9.70;;;;;;;8.94;100.00;97599.21;109288;1256;65667;-72
2023/04/15 00:14:14;;;;;;;9.90;8.60;;;;;;;8.90;100.00;97597.30;109595;1251;59740;-72
2023/04/15 00:16:41;;;;;;;11.40;10.00;;;;;;;8.86;100.00;97598.84;109627;1251;63852;-73
2023/04/15 00:19:07;;;;;;;10.60;9.50;;;;;;;8.83;100.00;97600.33;109619;1250;58990;-73
2023/04/15 00:21:34;;;;;;;14.80;11.90;;;;;;;8.81;100.00;97606.84;109633;1251;59069;-73
2023/04/15 00:24:01;;;;;;;15.50;11.00;;;;;;;8.79;100.00;97619.42;109540;1251;66087;-72
2023/04/15 00:26:27;;;;;;;12.80;10.50;;;;;;;8.76;100.00;97626.92;109623;1250;60090;-74
2023/04/15 00:28:54;;;;;;;15.00;12.10;;;;;;;8.71;100.00;97630.52;109550;1250;65126;-72
2023/04/15 00:31:20;;;;;;;18.60;12.90;;;;;;;8.65;100.00;97632.94;109293;1250;59010;-72
2023/04/15 00:33:48;;;;;;;35.50;20.90;;;;;;;8.60;100.00;97636.36;109590;1250;58930;-72
2023/04/15 00:36:14;;;;;;;48.00;25.10;;;;;;;8.54;100.00;97641.91;109490;1251;64798;-72
2023/04/15 00:38:41;;;;;;;33.50;20.20;;;;;;;8.51;100.00;97650.17;109634;1250;58988;-72
2023/04/15 00:41:09;;;;;;;31.50;20.40;;;;;;;8.49;100.00;97652.64;109621;1250;64055;-73
2023/04/15 00:43:35;;;;;;;30.20;18.90;;;;;;;8.48;100.00;97652.73;109455;1250;58978;-72
2023/04/15 00:46:04;;;;;;;46.90;24.40;;;;;;;8.48;100.00;97648.11;109643;1251;59027;-72
2023/04/15 00:48:31;;;;;;;59.80;28.70;;;;;;;8.48;100.00;97650.27;109579;1250;65732;-73
2023/04/15 00:50:58;;;;;;;63.80;29.40;;;;;;;8.48;100.00;97649.39;109544;1250;60390;-73
2023/04/15 00:53:24;;;;;;;59.00;28.90;;;;;;;8.47;100.00;97653.00;109449;1250;64189;-72
2023/04/15 00:55:51;;;;;;;56.30;28.70;;;;;;;8.46;100.00;97652.91;109606;1251;59091;-71
2023/04/15 00:58:18;;;;;;;55.60;27.10;;;;;;;8.46;100.00;97649.73;109625;1251;58953;-72
2023/04/15 01:00:45;;;;;;;53.50;27.60;;;;;;;8.46;100.00;97645.84;109617;1250;65280;-71
2023/04/15 01:03:11;;;;;;;46.10;23.80;;;;;;;8.45;100.00;97643.26;109545;1250;59437;-72
2023/04/15 01:05:38;;;;;;;44.20;23.90;;;;;;;8.43;100.00;97643.09;109624;1250;62879;-71
2023/04/15 01:08:05;;;;;;;54.70;27.00;;;;;;;8.39;100.00;97637.71;109563;1251;59262;-73
2023/04/15 01:10:32;;;;;;;45.60;24.70;;;;;;;8.37;100.00;97640.67;109330;1251;59166;-73
2023/04/15 01:12:59;;;;;;;47.30;26.20;;;;;;;8.35;100.00;97639.91;109549;1250;66096;-73
2023/04/15 01:15:26;;;;;;;51.30;27.90;;;;;;;8.35;100.00;97642.91;109616;1250;59046;-72
2023/04/15 01:17:53;;;;;;;46.60;27.00;;;;;;;8.35;100.00;97646.65;109584;1251;64142;-72
2023/04/15 01:20:20;;;;;;;45.30;25.20;;;;;;;8.36;100.00;97644.44;109594;1251;59081;-72
2023/04/15 01:22:48;;;;;;;43.60;24.80;;;;;;;8.35;100.00;97640.66;109588;1250;58970;-72
2023/04/15 01:25:19;;;;;;;40.20;21.00;;;;;;;8.32;100.00;97640.14;109395;1250;66027;-72
2023/04/15 01:27:46;;;;;;;38.00;20.30;;;;;;;8.29;100.00;97641.27;109641;1251;60120;-72
2023/04/15 01:30:13;;;;;;;32.70;18.90;;;;;;;8.25;100.00;97638.76;109606;1250;63762;-73
2023/04/15 01:32:39;;;;;;;36.20;21.10;;;;;;;8.22;100.00;97638.85;109603;1251;59059;-71
2023/04/15 01:35:07;;;;;;;33.60;19.70;;;;;;;8.18;100.00;97640.59;109610;1251;59003;-72
2023/04/15 01:37:34;;;;;;;30.10;18.70;;;;;;;8.15;100.00;97651.22;109600;1251;65999;-71
2023/04/15 01:40:01;;;;;;;31.60;18.90;;;;;;;8.13;100.00;97655.98;109618;1250;59033;-73
2023/04/15 01:42:27;;;;;;;32.70;19.80;;;;;;;8.11;100.00;97660.59;109604;1251;62801;-72
2023/04/15 01:44:54;;;;;;;31.50;19.40;;;;;;;8.09;100.00;97664.79;109556;1251;58958;-71
2023/04/15 01:47:21;;;;;;;31.40;18.60;;;;;;;8.07;100.00;97666.36;109642;1251;58972;-71
2023/04/15 01:49:47;;;;;;;30.00;17.70;;;;;;;8.01;100.00;97669.51;109616;1251;64502;-71
2023/04/15 01:52:14;;;;;;;27.40;17.60;;;;;;;7.94;100.00;97671.81;109592;1251;60110;-71
2023/04/15 01:54:41;;;;;;;27.50;18.30;;;;;;;7.89;100.00;97672.36;109310;1251;64088;-71
2023/04/15 01:57:08;;;;;;;31.50;18.20;;;;;;;7.86;100.00;97671.33;109600;1251;59026;-71
2023/04/15 01:59:35;;;;;;;27.90;16.90;;;;;;;7.84;100.00;97671.90;109335;1251;59149;-73
2023/04/15 02:02:01;;;;;;;26.60;17.70;;;;;;;7.79;100.00;97674.41;109543;1250;66463;-71
2023/04/15 02:04:28;;;;;;;36.60;29.30;;;;;;;7.73;100.00;97675.52;109616;1251;59119;-71
2023/04/15 02:06:55;;;;;;;31.70;23.10;;;;;;;7.69;100.00;97676.33;109576;1251;62855;-72
2023/04/15 02:09:22;;;;;;;27.80;21.10;;;;;;;7.67;100.00;97679.33;109576;1250;59055;-71
2023/04/15 02:11:50;;;;;;;27.80;21.50;;;;;;;7.65;100.00;97688.88;109596;1251;59047;-72
2023/04/15 02:14:17;;;;;;;28.90;20.80;;;;;;;7.59;100.00;97691.64;109564;1250;75836;-72
2023/04/15 02:16:43;;;;;;;28.00;20.80;;;;;;;7.54;100.00;97687.59;109607;1250;60598;-72
2023/04/15 02:19:10;;;;;;;27.00;20.10;;;;;;;7.49;100.00;97687.83;109581;1250;62808;-72
2023/04/15 02:21:36;;;;;;;23.90;18.70;;;;;;;7.43;100.00;97693.14;109588;1250;59300;-72
2023/04/15 02:24:03;;;;;;;29.70;22.30;;;;;;;7.38;100.00;97690.58;109642;1251;59010;-71
2023/04/15 02:26:31;;;;;;;29.50;23.10;;;;;;;7.36;100.00;97693.92;109621;1251;66006;-71
2023/04/15 02:28:59;;;;;;;29.60;21.40;;;;;;;7.35;100.00;97702.59;109607;1250;58970;-72
2023/04/15 02:31:25;;;;;;;24.00;20.00;;;;;;;7.34;100.00;97706.25;109616;1251;62928;-71
2023/04/15 02:33:52;;;;;;;23.90;19.50;;;;;;;7.31;100.00;97705.20;109561;1251;58957;-71
2023/04/15 02:36:20;;;;;;;23.60;19.60;;;;;;;7.26;100.00;97709.29;109598;1250;58891;-71
2023/04/15 02:38:46;;;;;;;22.90;18.90;;;;;;;7.20;100.00;97709.37;109605;1250;66107;-71
2023/04/15 02:41:13;;;;;;;22.60;17.20;;;;;;;7.13;100.00;97707.27;109531;1250;60120;-71
2023/04/15 02:43:39;;;;;;;20.10;17.60;;;;;;;7.06;100.00;97712.70;109505;1251;64162;-72
2023/04/15 02:46:06;;;;;;;25.90;20.30;;;;;;;6.99;100.00;97711.77;109595;1250;59025;-72
2023/04/15 02:48:33;;;;;;;22.40;20.10;;;;;;;6.95;100.00;97713.83;109638;1250;58971;-72
2023/04/15 02:51:13;;;;;;;22.10;19.80;;;;;;;6.93;100.00;97715.81;109575;1251;64855;-72
2023/04/15 02:53:40;;;;;;;23.80;20.20;;;;;;;6.87;100.00;97719.77;109630;1251;59038;-72
2023/04/15 02:56:07;;;;;;;24.40;21.40;;;;;;;6.82;100.00;97722.78;109541;1251;62833;-72
2023/04/15 02:58:37;;;;;;;25.10;22.50;;;;;;;6.76;100.00;97720.35;109608;1251;58966;-71
2023/04/15 03:01:03;;;;;;;24.90;22.40;;;;;;;6.72;100.00;97723.27;109626;1250;58926;-72
2023/04/15 03:03:30;;;;;;;24.70;22.20;;;;;;;6.69;100.00;97721.59;109628;1250;65996;-71
2023/04/15 03:05:56;;;;;;;24.60;22.20;;;;;;;6.65;100.00;97724.48;109671;1251;60259;-71
2023/04/15 03:08:23;;;;;;;22.90;20.60;;;;;;;6.62;100.00;97726.48;109579;1251;64036;-71
2023/04/15 03:10:51;;;;;;;19.80;17.70;;;;;;;6.57;100.00;97725.38;109550;1250;58981;-72
2023/04/15 03:13:18;;;;;;;18.50;16.20;;;;;;;6.58;100.00;97734.71;109606;1250;59065;-72
2023/04/15 03:15:47;;;;;;;18.70;15.40;;;;;;;6.58;100.00;97734.14;109390;1250;64679;-72
2023/04/15 03:18:14;;;;;;;14.80;12.30;;;;;;;6.59;100.00;97730.54;109605;1251;59019;-72
2023/04/15 03:20:40;;;;;;;11.50;10.30;;;;;;;6.62;100.00;97731.04;109561;1251;62782;-73
2023/04/15 03:23:07;;;;;;;10.40;9.40;;;;;;;6.66;100.00;97733.41;109577;1251;59068;-73
2023/04/15 03:25:36;;;;;;;12.10;8.40;;;;;;;6.70;100.00;97731.95;109632;1250;58942;-73
2023/04/15 03:28:04;;;;;;;10.00;8.40;;;;;;;6.71;100.00;97730.73;109643;1251;64826;-73
2023/04/15 03:30:30;;;;;;;9.60;7.50;;;;;;;6.74;100.00;97735.48;109628;1250;60145;-73
2023/04/15 03:32:57;;;;;;;8.20;7.40;;;;;;;6.75;100.00;97736.29;109612;1250;62885;-73
2023/04/15 03:35:23;;;;;;;7.80;7.00;;;;;;;6.75;100.00;97736.14;109553;1251;59019;-73
2023/04/15 03:37:50;;;;;;;8.10;6.60;;;;;;;6.75;100.00;97741.64;109590;1250;59012;-73
2023/04/15 03:40:17;;;;;;;7.60;6.20;;;;;;;6.75;100.00;97746.06;109332;1251;64851;-73
2023/04/15 03:42:43;;;;;;;7.00;6.20;;;;;;;6.74;100.00;97750.50;109602;1251;60380;-78
2023/04/15 03:45:10;;;;;;;9.20;6.00;;;;;;;6.73;100.00;97752.20;109613;1250;62404;-72
2023/04/15 03:47:37;;;;;;;8.10;7.30;;;;;;;6.71;100.00;97756.36;109567;1250;59028;-73
2023/04/15 03:50:04;;;;;;;4.80;4.30;;;;;;;6.72;100.00;97762.14;109615;1250;58981;-73
2023/04/15 03:52:30;;;;;;;5.50;4.10;;;;;;;6.73;100.00;97762.92;109340;1251;65293;-73
2023/04/15 03:54:57;;;;;;;5.40;3.70;;;;;;;6.79;100.00;97761.80;109642;1250;59750;-73
2023/04/15 03:57:24;;;;;;;4.50;3.40;;;;;;;6.90;100.00;97758.23;109497;1251;64045;-73
2023/04/15 03:59:50;;;;;;;3.00;2.70;;;;;;;7.02;100.00;97760.16;109584;1250;59009;-73
2023/04/15 04:02:17;;;;;;;4.00;2.50;;;;;;;7.13;100.00;97762.56;109541;1250;58901;-73
2023/04/15 04:04:44;;;;;;;4.60;2.60;;;;;;;7.20;100.00;97760.59;109648;1250;66377;-73
2023/04/15 04:07:17;;;;;;;3.50;2.50;;;;;;;7.27;100.00;97758.85;109531;1250;61073;-73
2023/04/15 04:09:44;;;;;;;2.90;2.20;;;;;;;7.32;100.00;97763.45;109339;1250;65404;-73
2023/04/15 04:12:10;;;;;;;2.80;2.30;;;;;;;7.34;100.00;97767.17;109596;1250;59014;-73
2023/04/15 04:14:37;;;;;;;4.30;2.90;;;;;;;7.38;100.00;97769.75;109423;1250;59011;-74
2023/04/15 04:17:04;;;;;;;4.10;2.60;;;;;;;7.40;100.00;97776.30;109590;1250;64755;-73
2023/04/15 04:19:31;;;;;;;6.90;4.40;;;;;;;7.42;100.00;97781.75;109530;1251;59081;-72
2023/04/15 04:21:57;;;;;;;6.40;4.50;;;;;;;7.42;100.00;97778.64;109454;1250;63926;-72
2023/04/15 04:24:24;;;;;;;8.40;5.10;;;;;;;7.41;100.00;97786.08;109521;1250;59088;-72
2023/04/15 04:26:51;;;;;;;6.20;5.20;;;;;;;7.43;100.00;97789.15;109615;1250;58913;-72
2023/04/15 04:29:18;;;;;;;6.80;5.10;;;;;;;7.45;100.00;97792.17;109453;1250;66011;-72
2023/04/15 04:31:45;;;;;;;5.60;4.10;;;;;;;7.48;100.00;97793.02;109133;1250;61222;-73
2023/04/15 04:34:12;;;;;;;8.50;4.90;;;;;;;7.52;100.00;97793.77;109584;1250;65024;-72
2023/04/15 04:36:38;;;;;;;8.80;4.80;;;;;;;7.56;100.00;97795.81;109563;1250;58978;-72
2023/04/15 04:39:05;;;;;;;8.00;5.30;;;;;;;7.61;100.00;97795.95;109603;1250;58998;-72
2023/04/15 04:41:32;;;;;;;8.60;4.90;;;;;;;7.68;100.00;97795.59;109573;1250;66711;-73
2023/04/15 04:43:58;;;;;;;8.40;5.90;;;;;;;7.75;100.00;97799.90;109576;1250;60123;-73
2023/04/15 04:46:25;;;;;;;8.80;6.10;;;;;;;7.77;100.00;97802.14;109597;1250;62737;-73
2023/04/15 04:48:52;;;;;;;7.40;6.10;;;;;;;7.80;100.00;97802.28;109622;1250;58971;-72
2023/04/15 04:51:18;;;;;;;7.10;6.30;;;;;;;7.85;100.00;97806.16;109598;1250;59051;-72
2023/04/15 04:53:45;;;;;;;7.70;5.30;;;;;;;7.91;100.00;97806.12;109555;1250;64485;-72
2023/04/15 04:56:12;;;;;;;12.00;8.70;;;;;;;7.97;100.00;97804.75;109621;1250;60029;-72
2023/04/15 04:58:38;;;;;;;11.10;8.50;;;;;;;8.05;100.00;97806.95;109324;1250;63472;-72
2023/04/15 05:01:05;;;;;;;12.70;9.10;;;;;;;8.18;100.00;97806.38;109596;1250;59361;-72
2023/04/15 05:03:31;;;;;;;10.30;9.10;;;;;;;8.25;100.00;97804.71;109581;1250;58887;-72
2023/04/15 05:05:58;;;;;;;13.70;8.80;;;;;;;8.34;100.00;97807.60;109627;1250;59296;-72
2023/04/15 05:08:25;;;;;;;13.60;11.00;;;;;;;8.58;100.00;97811.07;109607;1250;60109;-72
2023/04/15 05:10:52;;;;;;;14.20;10.20;;;;;;;8.83;100.00;97818.32;109562;1250;62815;-72
2023/04/15 05:13:20;;;;;;;12.90;9.80;;;;;;;9.21;100.00;97815.11;109601;1250;59009;-73
2023/04/15 05:15:47;;;;;;;13.40;10.50;;;;;;;9.48;100.00;97818.97;109625;1250;58947;-73
2023/04/15 05:18:13;;;;;;;12.80;10.30;;;;;;;9.73;100.00;97821.59;109592;1250;66061;-73
2023/04/15 05:20:40;;;;;;;10.40;7.90;;;;;;;9.98;100.00;97821.98;109612;1250;59005;-73
2023/04/15 05:23:06;;;;;;;9.60;7.70;;;;;;;10.21;100.00;97820.43;109578;1250;64030;-73
2023/04/15 05:25:33;;;;;;;9.70;7.50;;;;;;;10.46;100.00;97817.43;109582;1250;58950;-73
2023/04/15 05:28:00;;;;;;;8.60;6.40;;;;;;;10.73;100.00;97816.52;109420;1250;59038;-73
2023/04/15 05:30:26;;;;;;;14.20;7.30;;;;;;;10.98;100.00;97819.55;109533;1250;64853;-72
2023/04/15 05:32:53;;;;;;;9.80;7.30;;;;;;;11.41;100.00;97821.73;109626;1250;60281;-72
2023/04/15 05:35:19;;;;;;;11.70;7.70;;;;;;;11.73;100.00;97820.27;109595;1250;58952;-72
2023/04/15 05:37:46;;;;;;;10.20;7.10;;;;;;;12.03;100.00;97817.59;109620;1250;59091;-72
2023/04/15 05:40:13;;;;;;;10.00;6.50;;;;;;;12.43;100.00;97818.91;109437;1250;58962;-72
2023/04/15 05:42:40;;;;;;;8.60;5.90;;;;;;;12.73;98.74;97823.09;109612;1250;66078;-72
2023/04/15 05:45:08;;;;;;;7.60;5.10;;;;;;;12.63;98.47;97830.08;109609;1250;60170;-72
2023/04/15 05:47:36;;;;;;;10.80;5.20;;;;;;;12.65;96.71;97836.42;109578;1250;64073;-73
2023/04/15 05:50:03;;;;;;;7.20;4.90;;;;;;;12.58;95.24;97840.17;109616;1250;59265;-73
2023/04/15 05:52:30;;;;;;;8.20;5.20;;;;;;;12.89;92.81;97841.88;109552;1250;58940;-72
2023/04/15 05:54:57;;;;;;;8.50;5.10;;;;;;;13.22;90.20;97843.20;109624;1250;64914;-72
2023/04/15 05:57:23;;;;;;;5.80;4.30;;;;;;;13.33;88.60;97847.79;109650;1250;59156;-73
2023/04/15 05:59:53;;;;;;;5.60;4.70;;;;;;;13.42;87.53;97854.47;109606;1250;62803;-73
2023/04/15 06:02:19;;;;;;;5.50;4.50;;;;;;;13.61;86.45;97848.67;109581;1250;58997;-73
2023/04/15 06:04:46;;;;;;;7.40;5.70;;;;;;;13.90;85.68;97846.16;109354;1250;59043;-72
2023/04/15 06:07:13;;;;;;;7.30;5.80;;;;;;;14.19;85.13;97846.86;109619;1250;66034;-72
2023/04/15 06:09:40;;;;;;;7.90;6.20;;;;;;;14.39;83.84;97847.17;109585;1250;59467;-73
2023/04/15 06:12:10;;;;;;;6.40;5.00;;;;;;;14.19;81.64;97847.99;109572;1250;62885;-72
2023/04/15 06:14:39;;;;;;;7.40;4.90;;;;;;;13.63;80.99;97847.46;109563;1250;59293;-73
2023/04/15 06:17:06;;;;;;;5.60;4.70;;;;;;;13.17;81.97;97852.89;109637;1250;58864;-73
2023/04/15 06:19:33;;;;;;;5.10;4.60;;;;;;;12.96;83.81;97862.42;109591;1250;67422;-73
2023/04/15 06:22:00;;;;;;;7.50;5.10;;;;;;;12.89;83.19;97867.04;109639;1250;60115;-73
2023/04/15 06:24:27;;;;;;;4.50;3.70;;;;;;;12.90;83.08;97865.29;109607;1250;62940;-73
2023/04/15 06:26:54;;;;;;;4.40;3.90;;;;;;;13.14;82.32;97860.00;109595;1250;59294;-73
2023/04/15 06:29:21;;;;;;;4.90;4.40;;;;;;;13.24;81.15;97855.29;109634;1250;58919;-72
2023/04/15 06:31:50;;;;;;;5.50;4.40;;;;;;;13.30;80.26;97852.89;109566;1250;59431;-72
2023/04/15 06:34:16;;;;;;;5.50;4.10;;;;;;;13.35;79.81;97856.20;109641;1250;59266;-72
2023/04/15 06:36:42;;;;;;;5.90;4.10;;;;;;;13.45;79.41;97863.42;109589;1250;64044;-72
2023/04/15 06:39:09;;;;;;;6.20;4.60;;;;;;;13.45;78.81;97864.71;109555;1250;59106;-73
2023/04/15 06:41:36;;;;;;;7.20;4.60;;;;;;;13.33;78.76;97864.98;109321;1250;59114;-72
2023/04/15 06:44:02;;;;;;;5.10;4.50;;;;;;;13.34;79.22;97868.96;109615;1250;66049;-72
2023/04/15 06:46:29;;;;;;;5.20;4.60;;;;;;;13.41;79.51;97875.80;109602;1250;60240;-72
2023/04/15 06:48:55;;;;;;;4.90;4.00;;;;;;;13.44;78.67;97880.55;109569;1250;62494;-72
2023/04/15 06:51:22;;;;;;;4.90;4.50;;;;;;;13.43;79.13;97887.25;109588;1250;58968;-72
2023/04/15 06:53:49;;;;;;;4.20;3.70;;;;;;;13.44;78.18;97887.65;109594;1250;58878;-72
2023/04/15 06:56:15;;;;;;;6.00;4.10;;;;;;;13.41;78.06;97885.84;109599;1250;66078;-72
2023/04/15 06:58:42;;;;;;;4.50;3.30;;;;;;;13.45;78.40;97889.84;109581;1250;58931;-72
2023/04/15 07:01:08;;;;;;;5.90;5.10;;;;;;;13.53;77.95;97887.08;109571;1250;64066;-72
2023/04/15 07:03:35;;;;;;;6.70;5.30;;;;;;;13.57;77.66;97888.86;109612;1250;59143;-72
2023/04/15 07:06:05;;;;;;;4.70;4.00;;;;;;;13.64;76.81;97891.93;109619;1250;58911;-73
2023/04/15 07:08:32;;;;;;;3.40;3.10;;;;;;;13.57;75.05;97890.13;109311;1250;66020;-72
2023/04/15 07:11:00;;;;;;;5.00;3.90;;;;;;;13.59;75.87;97886.67;109595;1250;60182;-72
2023/04/15 07:13:26;;;;;;;3.50;2.60;;;;;;;13.78;76.46;97886.48;109368;1250;64090;-73
2023/04/15 07:15:53;;;;;;;3.90;2.90;;;;;;;13.85;74.37;97889.21;109538;1250;58960;-73
2023/04/15 07:18:20;;;;;;;3.00;2.50;;;;;;;13.80;73.73;97890.20;109544;1250;58983;-73
2023/04/15 07:20:46;;;;;;;4.00;2.60;;;;;;;13.74;72.96;97895.98;109401;1250;59563;-73
2023/04/15 07:23:13;;;;;;;2.60;1.90;;;;;;;13.75;73.70;97902.83;109616;1250;60212;-72
2023/04/15 07:25:40;;;;;;;3.00;2.10;;;;;;;13.88;73.58;97900.46;109602;1250;64031;-72
2023/04/15 07:28:06;;;;;;;4.10;3.20;;;;;;;14.03;72.97;97900.80;109524;1250;59112;-72
2023/04/15 07:30:33;;;;;;;4.80;2.80;;;;;;;14.05;72.37;97897.54;109541;1253;58943;-73
2023/04/15 07:33:00;;;;;;;2.70;2.10;;;;;;;13.99;72.22;97903.50;109552;1250;64789;-72
2023/04/15 07:35:28;;;;;;;2.70;2.40;;;;;;;14.02;72.01;97903.56;109514;1250;60354;-73
2023/04/15 07:37:55;;;;;;;2.60;2.40;;;;;;;14.17;71.49;97900.84;109183;1250;64064;-73
2023/04/15 07:40:21;;;;;;;4.20;2.60;;;;;;;14.36;70.48;97898.80;109539;1250;58971;-73
2023/04/15 07:42:48;;;;;;;3.70;2.30;;;;;;;14.40;70.26;97897.83;109580;1250;59088;-73
2023/04/15 07:45:15;;;;;;;2.20;2.00;;;;;;;14.55;70.32;97899.10;109583;1250;66029;-73
2023/04/15 07:47:41;;;;;;;2.80;2.60;;;;;;;14.63;69.67;97897.20;109509;1250;60562;-73
2023/04/15 07:50:10;;;;;;;3.90;2.90;;;;;;;14.79;69.44;97897.52;109595;1250;59085;-72
2023/04/15 07:52:39;;;;;;;2.70;2.40;;;;;;;14.97;69.31;97897.30;109587;1250;58993;-72
2023/04/15 07:55:09;;;;;;;2.90;2.70;;;;;;;15.09;67.98;97896.02;109655;1250;58898;-72
2023/04/15 07:57:36;;;;;;;5.50;2.20;;;;;;;15.14;67.32;97895.17;109499;1250;66085;-72
2023/04/15 08:00:04;;;;;;;2.50;2.10;;;;;;;15.10;66.15;97892.84;109575;1250;60173;-72
2023/04/15 08:02:31;;;;;;;1.90;1.60;;;;;;;15.08;66.53;97895.09;109543;1251;62829;-72
2023/04/15 08:04:58;;;;;;;1.50;1.40;;;;;;;15.31;66.66;97895.40;109571;1250;59049;-72
2023/04/15 08:07:25;;;;;;;2.70;1.50;;;;;;;15.58;66.14;97897.42;109373;1250;59078;-73
2023/04/15 08:09:51;;;;;;;2.50;1.70;;;;;;;15.82;65.70;97896.73;109632;1250;66067;-72
2023/04/15 08:12:18;;;;;;;1.50;1.30;;;;;;;15.78;64.39;97891.17;109624;1250;60233;-72
2023/04/15 08:14:45;;;;;;;5.40;1.90;;;;;;;15.81;64.98;97888.57;109367;1250;64145;-72
2023/04/15 08:17:12;;;;;;;2.70;2.00;;;;;;;15.96;65.48;97888.41;109584;1250;58946;-72
2023/04/15 08:19:39;;;;;;;2.80;1.70;;;;;;;16.03;64.33;97886.05;109323;1250;59122;-72
2023/04/15 08:22:06;;;;;;;3.30;2.10;;;;;;;16.02;64.60;97887.18;109531;1250;66293;-73
2023/04/15 08:24:32;;;;;;;2.00;1.80;;;;;;;16.02;64.29;97884.66;109616;1250;60178;-72
2023/04/15 08:27:00;;;;;;;1.70;1.60;;;;;;;15.98;63.81;97883.55;109601;1250;62946;-72
2023/04/15 08:29:26;;;;;;;2.80;2.20;;;;;;;16.08;63.83;97881.55;109564;1250;59007;-72
2023/04/15 08:31:53;;;;;;;2.80;1.90;;;;;;;16.27;63.48;97885.74;109639;1250;58996;-72
2023/04/15 08:34:19;;;;;;;1.80;1.60;;;;;;;16.32;62.47;97887.08;109589;1250;64776;-72
2023/04/15 08:36:46;;;;;;;1.70;1.60;;;;;;;16.46;63.02;97885.80;109648;1250;58938;-72
2023/04/15 08:39:12;;;;;;;2.30;1.90;;;;;;;16.79;62.87;97887.88;109582;1250;64040;-72
2023/04/15 08:41:50;;;;;;;2.10;1.90;;;;;;;17.07;60.54;97890.81;109660;1250;59032;-72
2023/04/15 08:44:17;;;;;;;2.00;1.60;;;;;;;17.16;59.55;97888.09;109610;1250;59026;-72
2023/04/15 08:46:44;;;;;;;3.90;1.80;;;;;;;17.22;59.70;97890.61;109485;1250;66133;-72
2023/04/15 08:49:12;;;;;;;2.30;1.80;;;;;;;17.36;60.18;97887.61;109599;1250;60126;-72
2023/04/15 08:51:40;;;;;;;2.60;2.40;;;;;;;17.37;59.46;97887.31;109616;1250;62833;-73
2023/04/15 08:54:08;;;;;;;2.60;2.10;;;;;;;17.34;58.97;97884.39;109613;1250;58921;-72
2023/04/15 08:56:35;;;;;;;2.80;1.70;;;;;;;17.37;58.26;97885.52;109617;1250;59083;-72
2023/04/15 08:59:02;;;;;;;4.00;1.60;;;;;;;17.34;57.23;97894.48;109585;1249;66012;-72
2023/04/15 09:01:29;;;;;;;1.90;1.70;;;;;;;17.19;56.42;97895.02;109576;1250;59139;-72
2023/04/15 09:03:56;;;;;;;2.20;1.80;;;;;;;17.11;56.46;97894.04;109580;1250;59058;-72
2023/04/15 09:06:23;;;;;;;2.50;1.60;;;;;;;17.00;56.28;97895.10;109595;1250;59059;-72
2023/04/15 09:08:50;;;;;;;1.90;1.50;;;;;;;16.88;56.50;97893.16;109607;1250;59033;-72
2023/04/15 09:11:18;;;;;;;1.70;1.10;;;;;;;16.89;56.90;97893.36;109563;1250;66011;-72
2023/04/15 09:13:45;;;;;;;1.60;1.20;;;;;;;16.99;57.41;97891.00;109627;1250;59044;-73
2023/04/15 09:16:12;;;;;;;1.50;1.30;;;;;;;17.11;57.31;97890.27;109628;1250;63925;-73
2023/04/15 09:18:39;;;;;;;2.20;1.60;;;;;;;17.17;57.33;97886.35;109501;1250;58951;-72
2023/04/15 09:21:10;;;;;;;1.80;1.40;;;;;;;17.04;56.35;97887.83;109633;1250;59061;-72
2023/04/15 09:23:39;;;;;;;0.90;0.90;;;;;;;16.79;55.04;97892.83;109577;1250;66117;-72
2023/04/15 09:26:06;;;;;;;1.10;0.90;;;;;;;16.59;54.32;97897.57;109483;1250;158552;-73
2023/04/15 09:28:40;;;;;;;1.90;1.10;;;;;;;16.52;54.62;97895.42;109609;1250;63855;-73
2023/04/15 09:31:09;;;;;;;1.10;1.00;;;;;;;16.61;54.90;97890.70;109593;1250;58956;-73
2023/04/15 09:33:55;;;;;;;2.20;1.20;;;;;;;16.60;55.13;97890.65;109471;1250;59035;-73
2023/04/15 09:36:21;;;;;;;1.80;1.50;;;;;;;16.49;55.50;97895.60;109552;1250;66006;-72
2023/04/15 09:38:56;;;;;;;1.50;1.40;;;;;;;16.38;56.04;97895.11;109591;1250;59069;-73
2023/04/15 09:41:24;;;;;;;1.80;1.30;;;;;;;16.31;56.41;97891.84;109618;1250;63934;-72
2023/04/15 09:43:51;;;;;;;1.50;1.30;;;;;;;16.26;56.61;97896.07;109026;1256;59048;-73
2023/04/15 09:46:17;;;;;;;1.50;1.40;;;;;;;16.22;56.00;97894.04;109022;1256;59154;-73
2023/04/15 09:48:44;;;;;;;1.30;1.20;;;;;;;16.21;56.47;97894.89;109221;1255;59080;-73
2023/04/15 09:51:11;;;;;;;1.30;1.20;;;;;;;16.25;55.85;97894.45;109182;1255;59226;-73
2023/04/15 09:53:37;;;;;;;2.20;1.90;;;;;;;16.27;56.48;97892.05;109188;1255;60015;-73
2023/04/15 09:56:06;;;;;;;1.40;1.10;;;;;;;16.40;56.43;97889.60;109166;1255;59337;-73
2023/04/15 09:58:34;;;;;;;3.50;1.50;;;;;;;16.44;55.53;97888.36;109084;1257;59062;-73
2023/04/15 10:01:08;;;;;;;1.80;1.20;;;;;;;16.58;55.76;97887.76;109187;1255;66238;-73
2023/04/15 10:03:38;;;;;;;2.10;1.20;;;;;;;16.82;54.54;97885.49;109164;1255;59066;-73
2023/04/15 10:06:04;;;;;;;1.10;1.00;;;;;;;17.03;53.14;97884.09;109211;1255;64219;-73
2023/04/15 10:08:33;;;;;;;1.30;1.10;;;;;;;17.17;52.81;97879.15;109181;1255;59086;-73
2023/04/15 10:11:01;;;;;;;1.40;1.30;;;;;;;17.30;51.64;97879.69;109191;1255;58911;-73
2023/04/15 10:13:35;;;;;;;1.90;1.30;;;;;;;17.37;50.77;97877.83;109105;1256;66056;-73
2023/04/15 10:16:15;;;;;;;1.40;1.30;;;;;;;17.25;50.28;97880.24;109470;1251;59206;-74
2023/04/15 10:18:44;;;;;;;1.70;1.60;;;;;;;17.20;50.65;97879.92;109506;1251;64071;-72
2023/04/15 10:21:17;;;;;;;1.60;1.50;;;;;;;17.22;50.62;97884.86;109506;1251;58967;-72
2023/04/15 10:23:47;;;;;;;1.80;1.60;;;;;;;17.30;50.66;97878.38;109509;1251;59213;-73
2023/04/15 10:26:16;;;;;;;1.80;1.70;;;;;;;17.42;50.68;97874.20;109494;1251;66073;-72
2023/04/15 10:28:43;;;;;;;2.30;1.80;;;;;;;17.49;50.55;97876.20;109596;1251;58973;-72
2023/04/15 10:31:14;;;;;;;2.30;1.90;;;;;;;17.51;50.60;97873.16;109477;1251;64120;-73
2023/04/15 10:33:42;;;;;;;1.80;1.70;;;;;;;17.77;52.46;97869.29;109447;1251;59360;-72
2023/04/15 10:36:10;;;;;;;3.10;2.10;;;;;;;18.08;51.63;97868.28;109455;1251;59221;-73
2023/04/15 10:38:42;;;;;;;2.00;1.80;;;;;;;18.25;51.36;97872.59;109544;1251;65842;-72
2023/04/15 10:41:11;;;;;;;1.70;1.60;;;;;;;18.40;50.71;97871.30;109595;1251;60158;-72
2023/04/15 10:43:38;;;;;;;1.80;1.70;;;;;;;18.46;49.73;97874.13;109543;1251;64072;-72
2023/04/15 10:46:05;;;;;;;2.20;1.30;;;;;;;18.36;49.97;97873.96;109321;1251;58982;-73
2023/04/15 10:48:32;;;;;;;4.40;1.50;;;;;;;18.15;49.21;97875.02;109561;1251;58862;-73
2023/04/15 10:51:03;;;;;;;2.00;1.90;;;;;;;18.02;48.83;97873.31;109470;1251;64782;-72
2023/04/15 10:53:30;;;;;;;3.40;1.70;;;;;;;18.10;49.66;97876.46;109542;1251;59216;-72
2023/04/15 10:55:57;;;;;;;1.50;1.40;;;;;;;18.27;49.44;97875.20;109485;1251;62705;-72
2023/04/15 10:58:24;;;;;;;1.80;1.50;;;;;;;18.49;50.52;97873.20;109535;1251;58933;-73
2023/04/15 11:00:52;;;;;;;1.90;1.50;;;;;;;18.71;49.89;97870.48;109363;1251;59124;-72
2023/04/15 11:03:50;;;;;;;1.80;1.40;;;;;;;18.71;48.61;97876.77;109476;1255;64533;-73
2023/04/15 11:06:16;;;;;;;2.50;2.00;;;;;;;18.45;48.19;97880.30;109185;1255;59189;-72
2023/04/15 11:08:57;;;;;;;4.00;1.90;;;;;;;18.22;48.22;97881.67;109122;1256;59028;-72
2023/04/15 11:12:01;;;;;;;2.10;1.90;;;;;;;18.25;49.35;97879.40;109101;1256;59077;-72
2023/04/15 11:14:28;;;;;;;2.70;2.40;;;;;;;18.51;49.42;97883.40;109117;1257;59122;-72
2023/04/15 11:16:55;;;;;;;2.80;2.00;;;;;;;18.82;49.94;97884.75;109168;1256;66080;-73
2023/04/15 11:19:21;;;;;;;2.00;1.80;;;;;;;19.13;50.34;97885.17;109160;1255;60703;-72
2023/04/15 11:21:48;;;;;;;2.40;2.10;;;;;;;19.42;49.50;97880.48;109137;1256;59114;-73